Time;durP1;ratioP1;P1;durP2;ratioP2;P2;SDS_P1;SDS_P2;PMS_P1;PMS_P2;Temp;Humidity;BMP_temperature;BMP_pressure;BME280_temperature;BME280_humidity;BME280_pressure;Samples;Min_cycle;Max_cycle;Signal;HPM_P1;HPM_P2
2021/09/15 00:01:48;;;;;;;11.35;9.63;;;19.70;99.90;;;19.23;100.00;100649.06;4168165;28;20080;-78
2021/09/15 00:03:49;;;;;;;9.43;8.50;;;19.60;99.90;;;19.18;100.00;100645.38;4169457;28;20049;-78
2021/09/15 00:05:50;;;;;;;13.68;10.20;;;19.60;99.90;;;19.09;100.00;100639.47;4169442;28;20035;-78
2021/09/15 00:07:50;;;;;;;15.98;10.75;;;19.60;99.90;;;19.11;100.00;100641.94;4169365;28;20018;-78
2021/09/15 00:09:51;;;;;;;14.82;10.70;;;19.50;99.90;;;19.11;100.00;100641.94;4167991;28;20057;-78
2021/09/15 00:11:54;;;;;;;13.30;9.68;;;19.50;99.90;;;19.09;100.00;100644.00;4169377;28;20034;-78
2021/09/15 00:13:55;;;;;;;10.48;9.35;;;19.50;99.90;;;19.09;100.00;100644.00;4168087;28;20022;-78
2021/09/15 00:15:57;;;;;;;14.27;10.98;;;19.50;99.90;;;19.06;100.00;100641.75;4168945;28;20608;-78
2021/09/15 00:17:57;;;;;;;11.18;9.95;;;19.50;99.90;;;19.12;100.00;100646.25;4167958;28;20093;-78
2021/09/15 00:19:58;;;;;;;14.73;11.38;;;19.50;99.90;;;19.06;100.00;100633.72;4171923;28;20071;-78
2021/09/15 00:21:59;;;;;;;12.77;10.98;;;19.50;99.90;;;19.08;100.00;100642.38;4178450;28;20544;-78
2021/09/15 00:24:00;;;;;;;16.13;11.43;;;19.50;99.90;;;19.06;100.00;100636.41;4169135;28;20022;-78
2021/09/15 00:26:01;;;;;;;15.07;11.70;;;19.50;99.90;;;19.09;100.00;100631.47;4167827;28;20026;-78
2021/09/15 00:28:03;;;;;;;17.45;11.57;;;19.50;99.90;;;19.10;100.00;100632.28;4169212;28;20496;-78
2021/09/15 00:30:04;;;;;;;14.30;9.48;;;19.50;99.90;;;19.12;100.00;100638.22;4168939;28;20036;-78
2021/09/15 00:32:06;;;;;;;11.38;9.10;;;19.50;99.90;;;19.15;100.00;100638.63;4169040;28;20021;-78
2021/09/15 00:34:07;;;;;;;10.07;8.73;;;19.50;99.90;;;19.07;100.00;100624.69;4167839;28;20029;-78
2021/09/15 00:36:08;;;;;;;14.05;10.43;;;19.50;99.90;;;19.10;100.00;100632.28;4169080;28;20044;-78
2021/09/15 00:38:09;;;;;;;13.35;9.88;;;19.50;99.90;;;19.08;100.00;100635.19;4169002;28;20033;-78
2021/09/15 00:40:11;;;;;;;19.60;11.85;;;19.50;99.90;;;19.14;100.00;100641.53;4168850;28;20080;-78
2021/09/15 00:42:12;;;;;;;15.43;9.75;;;19.50;99.90;;;19.14;100.00;100642.34;4167597;28;20104;-78
2021/09/15 00:44:14;;;;;;;11.15;9.32;;;19.50;99.90;;;19.19;100.00;100639.03;4167742;28;20021;-78
2021/09/15 00:46:15;;;;;;;11.52;8.55;;;19.60;99.90;;;19.22;100.00;100639.41;4157771;28;20056;-78
2021/09/15 00:48:16;;;;;;;10.32;8.43;;;19.50;99.90;;;19.17;100.00;100635.75;4174030;28;20021;-78
2021/09/15 00:50:17;;;;;;;11.75;8.95;;;19.50;99.90;;;19.18;100.00;100632.03;4167608;28;20029;-78
2021/09/15 00:52:19;;;;;;;10.90;9.20;;;19.60;99.90;;;19.25;100.00;100635.50;4171934;28;20035;-78
2021/09/15 00:54:20;;;;;;;12.68;9.73;;;19.60;99.90;;;19.16;100.00;100624.22;4184120;28;20024;-78
2021/09/15 00:56:21;;;;;;;14.38;10.60;;;19.60;99.90;;;19.24;100.00;100631.16;4185282;28;20032;-78
2021/09/15 00:58:22;;;;;;;12.35;9.18;;;19.60;99.90;;;19.20;100.00;100621.94;4183998;28;20037;-78
2021/09/15 01:00:24;;;;;;;12.40;9.45;;;19.60;99.90;;;19.20;100.00;100630.75;4167367;28;20044;-78
2021/09/15 01:02:26;;;;;;;12.38;10.18;;;19.60;99.90;;;19.22;100.00;100628.72;4174913;28;20093;-78
2021/09/15 01:04:27;;;;;;;11.88;10.35;;;19.60;99.90;;;19.23;100.00;100625.00;4184001;28;20479;-78
2021/09/15 01:06:31;;;;;;;10.18;9.00;;;19.60;99.90;;;19.22;100.00;100622.53;4183880;28;20025;-78
2021/09/15 01:08:33;;;;;;;10.07;7.72;;;19.60;99.90;;;19.24;100.00;100625.81;4185208;28;20108;-78
2021/09/15 01:10:34;;;;;;;9.13;8.13;;;19.60;99.90;;;19.26;100.00;100629.13;4183872;28;20056;-78
2021/09/15 01:12:38;;;;;;;8.93;8.02;;;19.60;99.90;;;19.21;100.00;100621.72;4183870;28;20048;-78
2021/09/15 01:14:40;;;;;;;;;;;19.60;99.90;;;19.20;100.00;100624.63;4183961;28;20044;-78
2021/09/15 01:16:53;;;;;;;10.73;8.68;;;19.60;99.90;;;19.20;100.00;100612.03;4185119;28;20023;-78
2021/09/15 01:18:53;;;;;;;14.20;11.02;;;19.60;99.90;;;19.14;100.00;100614.78;4167285;28;20036;-78
2021/09/15 01:20:55;;;;;;;18.23;12.75;;;19.60;99.90;;;19.18;100.00;100624.00;4179895;28;20033;-78
2021/09/15 01:22:56;;;;;;;16.25;11.70;;;19.60;99.90;;;19.18;100.00;100622.16;4184819;28;20017;-78
2021/09/15 01:24:57;;;;;;;16.27;12.82;;;19.60;99.90;;;19.22;100.00;100617.19;4185065;28;20090;-78
2021/09/15 01:26:59;;;;;;;12.82;11.50;;;19.60;99.90;;;19.24;100.00;100623.13;4183921;28;20032;-78
2021/09/15 01:29:01;;;;;;;16.05;11.82;;;19.60;99.90;;;19.30;100.00;100624.94;4183905;28;20514;-78
2021/09/15 01:31:01;;;;;;;14.07;11.90;;;19.60;99.90;;;19.27;100.00;100620.03;4152801;28;20037;-78
2021/09/15 01:33:02;;;;;;;13.43;12.00;;;19.60;99.90;;;19.21;100.00;100619.03;4168556;28;20513;-78
2021/09/15 01:35:04;;;;;;;14.82;11.10;;;19.60;99.90;;;19.20;100.00;100620.06;4167313;28;20029;-78
2021/09/15 01:37:07;;;;;;;15.35;11.77;;;19.60;99.90;;;19.16;100.00;100623.41;4167199;28;20559;-78
2021/09/15 01:39:08;;;;;;;13.75;10.20;;;19.60;99.90;;;19.13;100.00;100619.31;4168231;28;20041;-78
2021/09/15 01:41:09;;;;;;;12.55;10.10;;;19.60;99.90;;;19.21;100.00;100631.59;4168391;28;20034;-78
2021/09/15 01:43:10;;;;;;;12.23;9.27;;;19.60;99.90;;;19.20;100.00;100625.41;4167000;28;20432;-78
2021/09/15 01:45:12;;;;;;;12.82;11.05;;;19.50;99.90;;;19.21;100.00;100632.41;4168278;28;20028;-78
2021/09/15 01:47:15;;;;;;;13.70;11.32;;;19.60;99.90;;;19.20;100.00;100624.63;4166943;28;20127;-78
2021/09/15 01:49:16;;;;;;;17.27;12.82;;;19.60;99.90;;;19.25;100.00;100641.66;4171969;28;20444;-78
2021/09/15 01:51:17;;;;;;;16.08;12.88;;;19.60;99.90;;;19.26;100.00;100643.28;4176587;28;20034;-78
2021/09/15 01:53:18;;;;;;;17.80;13.02;;;19.60;99.90;;;19.30;100.00;100641.81;4167089;28;20032;-78
2021/09/15 01:55:26;;;;;;;14.77;12.23;;;19.60;99.90;;;19.27;100.00;100644.09;4167933;28;20086;-78
2021/09/15 01:57:27;;;;;;;13.43;12.02;;;19.60;99.90;;;19.26;100.00;100639.81;4170307;28;20119;-78
2021/09/15 01:59:28;;;;;;;15.18;12.65;;;19.60;99.90;;;19.29;100.00;100639.38;4162451;28;20037;-78
2021/09/15 02:01:29;;;;;;;16.08;13.90;;;19.60;99.90;;;19.30;100.00;100633.81;4182267;28;20083;-78
2021/09/15 02:03:30;;;;;;;14.68;13.05;;;19.70;99.90;;;19.29;100.00;100639.38;4171379;28;20029;-78
2021/09/15 02:05:31;;;;;;;23.60;14.32;;;19.70;99.90;;;19.43;100.00;100640.97;4171479;28;20064;-78
2021/09/15 02:07:32;;;;;;;15.73;11.07;;;19.70;99.90;;;19.42;100.00;100644.66;4170245;28;20068;-78
2021/09/15 02:09:34;;;;;;;15.88;12.88;;;19.70;99.90;;;19.37;100.00;100639.13;4170209;28;20025;-78
2021/09/15 02:11:37;;;;;;;17.52;11.90;;;19.70;99.90;;;19.46;100.00;100648.56;4171220;28;20040;-78
2021/09/15 02:13:37;;;;;;;12.30;10.87;;;19.70;99.90;;;19.35;100.00;100643.88;4171372;28;20029;-78
2021/09/15 02:15:38;;;;;;;17.38;12.55;;;19.70;99.90;;;19.42;100.00;100658.03;4178012;28;20276;-78
2021/09/15 02:17:40;;;;;;;16.75;11.63;;;19.70;99.90;;;19.44;100.00;100652.50;4191214;28;20029;-78
2021/09/15 02:19:41;;;;;;;13.35;11.07;;;19.70;99.90;;;19.49;100.00;100649.97;4170935;28;20073;-78
2021/09/15 02:21:42;;;;;;;14.60;11.63;;;19.70;99.90;;;19.46;100.00;100656.59;4169999;28;20025;-78
2021/09/15 02:23:43;;;;;;;12.15;9.65;;;19.70;99.90;;;19.33;100.00;100646.75;4169951;28;20021;-78
2021/09/15 02:25:44;;;;;;;10.75;8.18;;;19.70;99.90;;;19.24;100.00;100648.03;4171090;28;20104;-78
2021/09/15 02:27:45;;;;;;;14.90;9.93;;;19.70;99.90;;;19.18;100.00;100648.88;4169746;28;20467;-78
2021/09/15 02:29:46;;;;;;;11.73;8.70;;;19.70;99.90;;;19.19;100.00;100655.06;4169723;28;20032;-78
2021/09/15 02:31:47;;;;;;;12.82;10.40;;;19.60;99.90;;;19.13;100.00;100646.03;4171125;28;20049;-78
2021/09/15 02:33:48;;;;;;;10.18;9.05;;;19.60;99.90;;;19.16;100.00;100652.81;4171088;28;20033;-78
2021/09/15 02:35:49;;;;;;;8.90;8.00;;;19.50;99.90;;;19.15;100.00;100648.50;4170809;28;20021;-78
2021/09/15 02:37:50;;;;;;;9.52;7.68;;;19.50;99.90;;;19.13;100.00;100645.22;4170932;28;20104;-78
2021/09/15 02:39:51;;;;;;;10.23;8.88;;;19.50;99.90;;;19.12;100.00;100647.06;4169726;28;20033;-78
2021/09/15 02:41:52;;;;;;;11.77;7.65;;;19.50;99.90;;;19.11;100.00;100650.81;4180555;28;20021;-78
2021/09/15 02:43:52;;;;;;;11.85;10.00;;;19.50;99.90;;;19.15;100.00;100651.16;4185874;28;20029;-78
2021/09/15 02:45:54;;;;;;;12.43;9.15;;;19.50;99.90;;;19.10;100.00;100646.47;4185848;28;20049;-78
2021/09/15 02:47:55;;;;;;;15.85;10.73;;;19.50;99.90;;;19.26;100.00;100651.31;4186188;28;20021;-78
2021/09/15 02:49:56;;;;;;;11.90;9.75;;;19.60;99.90;;;19.23;100.00;100651.72;4186043;28;20059;-78
2021/09/15 02:51:56;;;;;;;13.35;11.40;;;19.60;99.90;;;19.23;100.00;100650.94;4185994;28;20033;-78
2021/09/15 02:53:57;;;;;;;10.05;8.13;;;19.60;99.90;;;19.22;100.00;100652.78;4186095;28;20059;-78
2021/09/15 02:55:58;;;;;;;11.02;8.23;;;19.60;99.90;;;19.15;100.00;100651.16;4187182;28;20037;-78
2021/09/15 02:57:59;;;;;;;10.98;9.57;;;19.60;99.90;;;19.16;100.00;100647.47;4169335;28;20036;-78
2021/09/15 03:00:00;;;;;;;10.32;9.15;;;19.50;99.90;;;19.21;100.00;100661.00;4165875;28;20037;-78
2021/09/15 03:02:01;;;;;;;11.48;10.32;;;19.60;99.90;;;19.22;100.00;100659.97;4185970;28;20056;-78
2021/09/15 03:04:02;;;;;;;13.02;9.20;;;19.60;99.90;;;19.27;100.00;100673.53;4186123;28;20168;-78
2021/09/15 03:06:03;;;;;;;12.60;8.40;;;19.60;99.90;;;19.20;100.00;100664.75;4187002;28;20021;-78
2021/09/15 03:08:04;;;;;;;10.30;9.20;;;19.60;99.90;;;19.22;100.00;100678.72;4185670;28;20060;-78
2021/09/15 03:10:08;;;;;;;14.93;11.35;;;19.60;99.90;;;19.23;100.00;100675.00;4182504;28;20043;-78
2021/09/15 03:12:08;;;;;;;14.70;10.43;;;19.60;99.90;;;19.22;100.00;100670.69;4169376;28;20060;-78
2021/09/15 03:14:09;;;;;;;11.73;9.90;;;19.60;99.90;;;19.31;100.00;100682.78;4169273;28;20592;-78
2021/09/15 03:16:10;;;;;;;12.93;11.50;;;19.60;99.90;;;19.42;100.00;100673.25;4182263;28;20043;-78
2021/09/15 03:18:11;;;;;;;13.63;10.20;;;19.60;99.90;;;19.34;100.00;100669.78;4185678;28;20511;-78
2021/09/15 03:20:13;;;;;;;10.30;8.95;;;19.70;99.90;;;19.41;100.00;100682.34;4186803;28;20065;-78
2021/09/15 03:22:14;;;;;;;13.57;10.70;;;19.70;99.90;;;19.40;100.00;100675.34;4185555;28;20025;-78
2021/09/15 03:24:15;;;;;;;12.30;9.73;;;19.70;99.90;;;19.43;100.00;100680.25;4186698;28;20542;-78
2021/09/15 03:26:16;;;;;;;10.75;9.65;;;19.70;99.90;;;19.40;100.00;100683.38;4185460;28;20066;-78
2021/09/15 03:28:17;;;;;;;9.50;8.38;;;19.70;99.90;;;19.31;100.00;100690.78;4185585;28;20028;-78
2021/09/15 03:30:18;;;;;;;11.13;8.98;;;19.70;99.90;;;19.31;100.00;100691.63;4186473;28;20033;-78
2021/09/15 03:32:19;;;;;;;11.63;9.15;;;19.70;99.90;;;19.30;100.00;100699.84;4186611;28;20396;-78
2021/09/15 03:34:20;;;;;;;11.35;9.43;;;19.60;99.90;;;19.30;100.00;100702.53;4185428;28;20455;-78
2021/09/15 03:36:20;;;;;;;9.30;7.85;;;19.70;99.90;;;19.31;100.00;100696.97;4185448;28;20033;-78
2021/09/15 03:38:21;;;;;;;11.52;7.80;;;19.70;99.90;;;19.27;100.00;100695.75;4185379;28;20112;-78
2021/09/15 03:40:22;;;;;;;8.07;6.90;;;19.70;99.90;;;19.24;100.00;100700.69;4186456;28;20544;-78
2021/09/15 03:42:23;;;;;;;9.95;7.47;;;19.60;99.90;;;19.20;100.00;100694.94;4171801;28;20021;-78
2021/09/15 03:44:24;;;;;;;9.35;7.20;;;19.60;99.90;;;19.16;100.00;100708.97;4186279;28;20504;-78
2021/09/15 03:46:25;;;;;;;7.93;6.72;;;19.50;99.90;;;19.18;100.00;100706.91;4185186;28;20124;-78
2021/09/15 03:48:26;;;;;;;13.10;7.78;;;19.60;99.90;;;19.20;100.00;100705.66;4185223;28;20021;-78
2021/09/15 03:50:27;;;;;;;10.63;7.38;;;19.60;99.90;;;19.24;100.00;100706.88;4153381;28;20036;-78
2021/09/15 03:52:28;;;;;;;8.05;7.00;;;19.50;99.90;;;19.23;100.00;100718.59;4152232;28;20456;-78
2021/09/15 03:54:31;;;;;;;8.77;7.05;;;19.60;99.90;;;19.18;100.00;100733.63;4176610;28;20028;-78
2021/09/15 03:56:32;;;;;;;8.57;6.65;;;19.50;99.90;;;19.25;100.00;100729.91;4180189;28;20091;-78
2021/09/15 03:58:33;;;;;;;8.07;7.28;;;19.50;99.90;;;19.35;100.00;100732.16;4184904;28;20028;-78
2021/09/15 04:00:34;;;;;;;8.65;6.40;;;19.60;99.90;;;19.32;100.00;100720.00;4184821;28;20033;-78
2021/09/15 04:02:35;;;;;;;6.63;5.65;;;19.70;99.90;;;19.33;100.00;100734.19;4185060;28;20520;-78
2021/09/15 04:04:36;;;;;;;8.32;7.15;;;19.60;99.90;;;19.35;100.00;100734.81;4168343;28;20030;-78
2021/09/15 04:06:37;;;;;;;7.30;6.00;;;19.60;99.90;;;19.28;100.00;100736.69;4170532;28;20071;-78
2021/09/15 04:08:38;;;;;;;7.47;6.15;;;19.70;99.90;;;19.22;100.00;100740.22;4172485;28;20028;-78
2021/09/15 04:10:39;;;;;;;10.63;7.82;;;19.60;99.90;;;19.24;100.00;100735.47;4184883;28;20037;-78
2021/09/15 04:12:40;;;;;;;9.15;7.28;;;19.60;99.90;;;19.20;100.00;100736.94;4174292;28;20141;-78
2021/09/15 04:14:41;;;;;;;11.05;7.32;;;19.60;99.90;;;19.22;100.00;100733.03;4167948;28;20042;-78
2021/09/15 04:16:42;;;;;;;10.30;8.65;;;19.60;99.90;;;19.08;100.00;100733.28;4151900;28;20489;-78
2021/09/15 04:18:43;;;;;;;11.60;9.35;;;19.60;99.90;;;19.07;100.00;100731.63;4167761;28;20117;-78
2021/09/15 04:20:45;;;;;;;11.35;9.00;;;19.50;99.90;;;19.14;100.00;100727.09;4178140;28;20033;-78
2021/09/15 04:22:46;;;;;;;12.57;9.40;;;19.60;99.90;;;19.08;100.00;100744.81;4171198;28;20397;-78
2021/09/15 04:31:32;;;;;;;12.13;10.52;;;19.50;99.90;;;18.96;100.00;100738.47;4173176;28;20060;-78
2021/09/15 04:33:33;;;;;;;14.63;10.70;;;19.40;99.90;;;18.96;100.00;100740.31;4184385;28;20029;-78
2021/09/15 04:35:34;;;;;;;14.75;12.10;;;19.50;99.90;;;18.97;100.00;100752.63;4184406;28;20074;-78
2021/09/15 04:37:34;;;;;;;14.80;10.50;;;19.50;99.90;;;18.84;100.00;100755.38;4185515;28;20056;-78
2021/09/15 04:39:35;;;;;;;14.63;11.52;;;19.40;99.90;;;18.88;100.00;100761.91;4179424;28;20022;-78
2021/09/15 04:41:36;;;;;;;16.13;10.77;;;19.40;99.90;;;18.87;100.00;100762.97;4169065;28;20030;-78
2021/09/15 04:43:38;;;;;;;14.25;11.52;;;19.30;99.90;;;18.95;100.00;100771.56;4168995;28;20100;-78
2021/09/15 04:45:39;;;;;;;12.55;9.70;;;19.30;99.90;;;18.88;100.00;100764.59;4167338;28;20045;-78
2021/09/15 04:47:39;;;;;;;16.83;11.38;;;19.40;99.90;;;18.95;100.00;100776.09;4174173;28;20021;-78
2021/09/15 04:49:40;;;;;;;17.25;12.32;;;19.30;99.90;;;18.97;100.00;100776.69;4185423;28;20036;-78
2021/09/15 04:51:41;;;;;;;18.48;12.20;;;19.30;99.90;;;18.88;100.00;100776.09;4184207;28;20028;-78
2021/09/15 04:53:42;;;;;;;20.73;14.35;;;19.30;99.90;;;18.79;100.00;100786.19;4185113;28;20108;-78
2021/09/15 04:55:43;;;;;;;19.30;13.60;;;19.30;99.90;;;18.83;100.00;100786.59;4184196;28;20082;-77
2021/09/15 04:57:44;;;;;;;19.13;13.30;;;19.30;99.90;;;18.78;100.00;100781.91;4185296;28;20056;-78
2021/09/15 04:59:45;;;;;;;18.40;14.73;;;19.30;99.90;;;18.83;100.00;100785.78;4185168;28;20036;-79
2021/09/15 05:01:46;;;;;;;20.73;15.63;;;19.30;99.90;;;18.70;100.00;100792.78;4169156;28;20025;-78
2021/09/15 05:03:47;;;;;;;18.42;13.50;;;19.30;99.90;;;18.66;100.00;100782.75;4172163;28;20031;-78
2021/09/15 05:05:47;;;;;;;22.30;15.48;;;19.30;99.90;;;18.65;100.00;100800.63;4183980;28;20041;-78
2021/09/15 05:07:48;;;;;;;20.55;14.00;;;19.20;99.90;;;18.70;100.00;100800.81;4185132;28;20032;-78
2021/09/15 05:09:49;;;;;;;27.02;15.50;;;19.20;99.90;;;18.68;100.00;100804.72;4185085;28;20029;-78
2021/09/15 05:11:50;;;;;;;24.00;16.23;;;19.20;99.90;;;18.73;100.00;100810.25;4185079;28;20108;-78
2021/09/15 05:13:51;;;;;;;25.67;16.10;;;19.20;99.90;;;18.72;100.00;100814.81;4185122;28;20039;-78
2021/09/15 05:15:52;;;;;;;18.38;14.35;;;19.20;99.90;;;18.71;100.00;100812.31;4183605;28;20078;-78
2021/09/15 05:17:53;;;;;;;23.10;15.50;;;19.20;99.90;;;18.70;100.00;100811.50;4184907;28;20071;-78
2021/09/15 05:19:54;;;;;;;20.45;16.25;;;19.10;99.90;;;18.76;100.00;100812.50;4163440;28;20113;-78
2021/09/15 05:21:55;;;;;;;22.05;14.90;;;19.10;99.90;;;18.67;100.00;100813.75;4175541;28;20029;-78
2021/09/15 05:23:56;;;;;;;18.40;14.32;;;19.10;99.90;;;18.76;100.00;100824.03;4157196;28;20112;-78
2021/09/15 05:25:57;;;;;;;21.27;13.63;;;19.10;99.90;;;18.72;100.00;100814.81;4167239;28;20067;-77
2021/09/15 05:27:58;;;;;;;23.23;15.57;;;19.10;99.90;;;18.74;100.00;100825.28;4168509;28;20408;-78
2021/09/15 05:29:58;;;;;;;22.33;15.35;;;19.10;99.90;;;18.74;100.00;100828.78;4167526;28;20117;-77
2021/09/15 05:31:59;;;;;;;22.67;15.13;;;19.20;99.90;;;18.78;100.00;100830.00;4170761;28;20033;-78
2021/09/15 05:34:00;;;;;;;23.40;16.42;;;19.10;99.90;;;18.76;100.00;100826.69;4170674;28;20044;-77
2021/09/15 05:36:01;;;;;;;24.30;17.30;;;19.20;99.90;;;18.70;100.00;100824.84;4171808;28;20038;-78
2021/09/15 05:38:02;;;;;;;22.33;16.17;;;19.20;99.90;;;18.63;100.00;100828.56;4171880;28;20029;-78
2021/09/15 05:40:05;;;;;;;22.70;16.83;;;19.10;99.90;;;18.64;100.00;100823.00;4170566;28;20084;-78
2021/09/15 05:42:06;;;;;;;29.17;16.77;;;19.10;99.90;;;18.69;100.00;100828.56;4171574;28;20448;-78
2021/09/15 05:44:07;;;;;;;20.40;15.40;;;19.10;99.90;;;18.72;100.00;100832.69;4171998;28;20017;-78
2021/09/15 05:46:08;;;;;;;22.35;15.70;;;19.10;99.90;;;18.68;100.00;100823.44;4159495;28;20107;-78
2021/09/15 05:48:09;;;;;;;22.10;14.32;;;19.10;99.90;;;18.70;100.00;100829.38;4187134;28;20032;-78
2021/09/15 05:50:10;;;;;;;23.90;15.88;;;19.10;99.90;;;18.69;100.00;100819.75;4187120;28;20057;-78
2021/09/15 05:52:11;;;;;;;26.10;16.30;;;19.00;99.90;;;18.65;100.00;100821.16;4186715;28;20025;-78
2021/09/15 05:54:12;;;;;;;20.40;15.45;;;19.10;99.90;;;18.57;100.00;100822.22;4182417;28;20116;-78
2021/09/15 05:56:13;;;;;;;19.05;14.10;;;19.10;99.90;;;18.57;100.00;100827.56;4171502;28;20025;-78
2021/09/15 05:58:15;;;;;;;20.92;14.15;;;19.00;99.90;;;18.54;100.00;100825.28;4171497;28;20021;-78
2021/09/15 06:00:17;;;;;;;18.80;13.65;;;19.00;99.90;;;18.42;100.00;100818.88;4170998;28;20033;-78
2021/09/15 06:02:18;;;;;;;18.75;12.77;;;19.00;99.90;;;18.50;100.00;100818.72;4159435;28;20025;-78
2021/09/15 06:04:19;;;;;;;18.55;14.15;;;18.90;99.90;;;18.47;100.00;100815.59;4179194;28;20112;-78
2021/09/15 06:06:19;;;;;;;21.63;15.65;;;18.90;99.90;;;18.51;100.00;100819.53;4186457;28;20025;-78
2021/09/15 06:08:20;;;;;;;20.83;15.57;;;18.90;99.90;;;18.36;100.00;100813.53;4186374;28;20028;-78
2021/09/15 06:10:22;;;;;;;25.33;16.92;;;18.90;99.90;;;18.36;100.00;100821.56;4169963;28;20029;-78
2021/09/15 06:12:23;;;;;;;29.58;18.55;;;18.90;99.90;;;18.33;100.00;100813.94;4161179;28;20466;-78
2021/09/15 06:14:23;;;;;;;25.20;17.33;;;18.90;99.90;;;18.39;100.00;100819.28;4170912;28;20030;-78
2021/09/15 06:16:25;;;;;;;25.50;18.13;;;18.90;99.90;;;18.47;100.00;100840.47;4169729;28;20032;-78
2021/09/15 06:18:25;;;;;;;32.38;20.30;;;18.90;99.90;;;18.30;100.00;100827.72;4169898;28;20120;-78
2021/09/15 06:20:26;;;;;;;26.23;18.85;;;18.90;99.90;;;18.28;100.00;100838.56;4169825;28;20544;-78
2021/09/15 06:22:27;;;;;;;34.28;23.00;;;18.90;99.90;;;18.16;100.00;100850.88;4170957;28;20029;-79
2021/09/15 06:24:28;;;;;;;29.83;19.67;;;18.80;99.90;;;18.20;100.00;100852.97;4184253;28;20033;-78
2021/09/15 06:26:29;;;;;;;30.52;20.90;;;18.80;99.90;;;18.07;100.00;100852.91;4181942;28;20513;-78
2021/09/15 06:28:30;;;;;;;30.55;19.80;;;18.70;99.90;;;17.99;100.00;100854.97;4171014;28;20100;-79
2021/09/15 06:30:31;;;;;;;31.65;20.83;;;18.70;99.90;;;18.00;100.00;100846.75;4180460;28;20029;-78
2021/09/15 06:32:32;;;;;;;31.40;20.75;;;18.70;99.90;;;18.03;100.00;100849.03;4173085;28;20528;-77
2021/09/15 06:34:34;;;;;;;31.08;20.00;;;18.60;99.90;;;18.09;100.00;100850.06;4169787;28;20029;-78
2021/09/15 06:36:35;;;;;;;27.63;19.15;;;18.70;99.90;;;18.06;100.00;100853.97;4169819;28;20540;-79
2021/09/15 06:38:36;;;;;;;33.08;18.85;;;18.60;99.90;;;17.92;100.00;100852.25;4169695;28;20117;-77
2021/09/15 06:40:37;;;;;;;27.50;19.33;;;18.60;99.90;;;17.88;100.00;100858.22;4169695;28;20029;-78
2021/09/15 06:42:38;;;;;;;28.83;19.13;;;18.60;99.90;;;17.87;100.00;100867.22;4187287;28;20033;-77
2021/09/15 06:44:39;;;;;;;29.02;18.88;;;18.60;99.90;;;17.90;100.00;100872.19;4180083;28;20417;-77
2021/09/15 06:46:40;;;;;;;28.45;17.65;;;18.50;99.90;;;17.92;100.00;100870.16;4169259;28;20064;-78
2021/09/15 06:48:41;;;;;;;29.65;18.00;;;18.50;99.90;;;17.92;100.00;100872.81;4170607;28;20064;-78
2021/09/15 06:50:42;;;;;;;21.65;16.08;;;18.50;99.90;;;17.96;100.00;100882.06;4169431;28;20079;-77
2021/09/15 06:52:43;;;;;;;28.77;18.67;;;18.50;99.90;;;17.94;100.00;100873.44;4170397;28;20022;-78
2021/09/15 06:54:47;;;;;;;24.63;16.63;;;18.50;99.90;;;17.98;100.00;100880.03;4169416;28;20084;-78
2021/09/15 06:56:48;;;;;;;22.80;15.35;;;18.60;99.90;;;18.01;100.00;100884.97;4169229;28;20550;-77
2021/09/15 06:58:49;;;;;;;29.15;17.52;;;18.60;99.90;;;17.83;100.00;100877.47;4172386;28;20116;-77
2021/09/15 07:00:50;;;;;;;27.67;16.70;;;18.60;99.90;;;17.94;100.00;100887.59;4179137;28;20060;-78
2021/09/15 07:02:51;;;;;;;25.20;15.25;;;18.50;99.90;;;17.95;100.00;100888.44;4162418;28;20142;-78
2021/09/15 07:04:53;;;;;;;25.13;16.15;;;18.50;99.90;;;17.88;100.00;100885.72;4181462;28;20021;-78
2021/09/15 07:06:54;;;;;;;21.33;14.48;;;18.60;99.90;;;18.03;100.00;100894.41;4181258;28;20025;-78
2021/09/15 07:08:55;;;;;;;20.63;13.73;;;18.60;99.90;;;18.01;100.00;100901.78;4176170;28;20056;-79
2021/09/15 07:10:56;;;;;;;22.95;14.68;;;18.60;99.90;;;17.96;100.00;100914.06;4170131;28;20033;-78
2021/09/15 07:12:57;;;;;;;22.60;14.32;;;18.60;99.90;;;18.00;100.00;100916.16;4170374;28;20034;-78
2021/09/15 07:14:58;;;;;;;21.83;14.65;;;18.60;99.90;;;18.05;100.00;100912.88;4169074;28;20041;-77
2021/09/15 07:16:59;;;;;;;19.85;13.50;;;18.60;99.90;;;18.01;100.00;100917.78;4153778;28;20489;-78
2021/09/15 07:19:01;;;;;;;18.88;13.73;;;18.60;99.90;;;17.88;100.00;100907.09;4170011;28;20033;-78
2021/09/15 07:21:02;;;;;;;22.23;14.65;;;18.60;99.90;;;18.02;100.00;100913.28;4171044;28;20025;-78
2021/09/15 07:23:03;;;;;;;19.48;13.63;;;18.60;99.90;;;18.09;100.00;100928.31;4169791;28;20489;-78
2021/09/15 07:25:05;;;;;;;17.50;11.25;;;18.60;99.90;;;18.15;100.00;100922.16;4169477;28;20683;-78
2021/09/15 07:27:06;;;;;;;30.50;11.73;;;18.60;99.90;;;18.23;100.00;100929.16;4178953;28;20036;-78
2021/09/15 07:29:07;;;;;;;15.13;11.02;;;18.70;99.90;;;18.21;100.00;100925.88;4176599;28;20025;-78
2021/09/15 07:31:08;;;;;;;24.13;11.75;;;18.70;99.90;;;18.09;100.00;100925.66;4161951;28;20038;-78
2021/09/15 07:33:10;;;;;;;13.57;10.20;;;18.70;99.90;;;18.19;100.00;100930.56;4175164;28;20029;-78
2021/09/15 07:35:13;;;;;;;13.50;10.35;;;18.70;99.90;;;18.19;100.00;100930.56;4185955;28;20520;-78
2021/09/15 07:37:15;;;;;;;16.13;11.30;;;18.70;99.90;;;18.14;100.00;100922.34;4174716;28;20100;-78
2021/09/15 07:39:16;;;;;;;15.48;10.95;;;18.70;99.90;;;18.10;100.00;100929.94;4170099;28;20477;-78
2021/09/15 07:41:17;;;;;;;12.93;9.60;;;18.70;99.90;;;18.07;100.00;100925.00;4160052;28;20045;-78
2021/09/15 07:43:18;;;;;;;14.00;10.05;;;18.70;99.90;;;18.16;100.00;100929.13;4177466;28;20453;-78
2021/09/15 07:45:19;;;;;;;16.50;10.68;;;18.70;99.90;;;18.23;100.00;100931.84;4171617;28;20081;-78
2021/09/15 07:47:20;;;;;;;15.70;10.80;;;18.70;99.90;;;18.26;100.00;100931.44;4171312;28;20163;-78
2021/09/15 07:49:21;;;;;;;12.30;9.52;;;18.80;99.90;;;18.49;100.00;100928.41;4159317;28;20025;-78
2021/09/15 07:51:22;;;;;;;14.73;9.40;;;19.00;99.90;;;18.65;100.00;100925.38;4178914;28;20028;-78
2021/09/15 07:53:23;;;;;;;18.48;11.73;;;19.10;99.90;;;18.68;100.00;100909.75;4185807;28;20017;-78
2021/09/15 07:55:24;;;;;;;12.93;9.65;;;19.40;99.90;;;18.84;100.00;100913.06;4187167;28;20056;-78
2021/09/15 07:57:25;;;;;;;15.48;10.75;;;19.50;99.90;;;18.76;100.00;100908.72;4184933;28;20029;-78
2021/09/15 07:59:26;;;;;;;15.68;9.35;;;19.70;99.90;;;18.95;100.00;100907.09;4184713;28;20117;-78
2021/09/15 08:01:27;;;;;;;11.45;9.13;;;19.80;99.90;;;19.10;100.00;100905.03;4172364;28;20036;-75
2021/09/15 08:03:28;;;;;;;14.15;9.00;;;20.00;99.90;;;19.26;100.00;100909.94;4169273;28;20026;-73
2021/09/15 08:05:29;;;;;;;15.18;11.43;;;20.10;99.90;;;19.19;100.00;100911.81;4168276;28;20081;-74
2021/09/15 08:07:30;;;;;;;9.70;7.97;;;20.10;99.90;;;19.18;100.00;100902.94;4168150;28;20034;-73
2021/09/15 08:09:31;;;;;;;12.13;8.90;;;20.20;99.90;;;19.28;99.94;100914.06;4169186;28;20028;-78
2021/09/15 08:11:33;;;;;;;11.25;9.45;;;20.20;99.90;;;19.30;100.00;100921.84;4164990;28;20167;-78
2021/09/15 08:13:34;;;;;;;15.00;9.75;;;20.30;99.90;;;19.01;100.00;100916.97;4167838;28;20083;-78
2021/09/15 08:15:35;;;;;;;11.00;8.40;;;20.20;99.90;;;19.20;100.00;100926.81;4166797;28;20025;-78
2021/09/15 08:17:38;;;;;;;13.02;9.85;;;20.20;99.90;;;19.22;100.00;100914.88;4162259;28;20045;-78
2021/09/15 08:19:39;;;;;;;12.95;9.68;;;20.20;99.90;;;19.31;99.20;100915.47;4167694;28;20096;-78